createdAt,value
2022-11-14T00:01:33.340Z,9.10
2022-11-14T00:02:55.940Z,7.60
2022-11-14T00:04:29.866Z,9.00
2022-11-14T00:06:02.701Z,8.10
2022-11-14T00:07:24.890Z,9.80
2022-11-14T00:08:52.041Z,7.80
2022-11-14T00:10:16.055Z,9.00
2022-11-14T00:11:37.760Z,8.90
2022-11-14T00:13:02.506Z,8.60
2022-11-14T00:14:24.471Z,8.20
2022-11-14T00:15:54.468Z,9.10
2022-11-14T00:17:16.936Z,8.60
2022-11-14T00:18:40.995Z,8.50
2022-11-14T00:20:06.089Z,9.50
2022-11-14T00:21:28.462Z,8.30
2022-11-14T00:22:50.623Z,8.80
2022-11-14T00:24:12.579Z,8.80
2022-11-14T00:25:34.916Z,9.40
2022-11-14T00:26:56.728Z,9.10
2022-11-14T00:28:18.755Z,9.70
2022-11-14T00:29:42.278Z,7.80
2022-11-14T00:31:04.586Z,9.90
2022-11-14T00:32:26.609Z,9.50
2022-11-14T00:33:48.975Z,8.70
2022-11-14T00:35:11.063Z,10.50
2022-11-14T00:36:33.673Z,9.40
2022-11-14T00:37:55.756Z,9.60
2022-11-14T00:39:17.990Z,8.80
2022-11-14T00:40:44.205Z,8.90
2022-11-14T00:42:07.094Z,9.00
2022-11-14T00:43:30.189Z,8.90
2022-11-14T00:44:52.498Z,9.00
2022-11-14T00:46:14.672Z,8.90
2022-11-14T00:47:36.633Z,9.00
2022-11-14T00:48:58.492Z,9.20
2022-11-14T00:50:20.783Z,9.20
2022-11-14T00:51:42.720Z,10.20
2022-11-14T00:53:05.213Z,8.80
2022-11-14T00:54:27.141Z,10.20
2022-11-14T00:55:48.760Z,10.20
2022-11-14T00:57:11.256Z,9.00
2022-11-14T00:58:33.219Z,8.90
2022-11-14T00:59:56.050Z,8.70
2022-11-14T01:01:20.586Z,10.70
2022-11-14T01:02:42.461Z,10.90
2022-11-14T01:04:04.638Z,8.50
2022-11-14T01:05:27.803Z,9.60
2022-11-14T01:06:49.742Z,9.20
2022-11-14T01:08:13.623Z,10.10
2022-11-14T01:09:36.043Z,9.10
2022-11-14T01:10:58.415Z,8.00
2022-11-14T01:12:20.692Z,9.10
2022-11-14T01:13:43.196Z,9.40
2022-11-14T01:15:06.300Z,7.40
2022-11-14T01:16:27.959Z,9.70
2022-11-14T01:17:50.111Z,8.00
2022-11-14T01:19:12.335Z,9.20
2022-11-14T01:20:34.356Z,7.80
2022-11-14T01:21:56.318Z,8.90
2022-11-14T01:23:18.454Z,9.60
2022-11-14T01:24:40.342Z,9.30
2022-11-14T01:26:05.142Z,8.50
2022-11-14T01:27:30.426Z,9.40
2022-11-14T01:28:53.668Z,9.10
2022-11-14T01:30:16.293Z,8.40
2022-11-14T01:31:38.115Z,8.00
2022-11-14T01:33:00.212Z,8.10
2022-11-14T01:34:23.137Z,8.50
2022-11-14T01:35:44.863Z,8.30
2022-11-14T01:37:07.139Z,8.70
2022-11-14T01:38:29.606Z,7.90
2022-11-14T01:39:51.768Z,9.00
2022-11-14T01:41:15.824Z,11.40
2022-11-14T01:42:37.435Z,9.80
2022-11-14T01:43:59.444Z,8.90
2022-11-14T01:45:59.257Z,10.00
2022-11-14T01:47:29.137Z,8.10
2022-11-14T01:49:13.779Z,9.90
2022-11-14T01:50:35.347Z,7.60
2022-11-14T01:52:05.285Z,9.40
2022-11-14T01:53:27.906Z,9.50
2022-11-14T01:54:54.797Z,10.70
2022-11-14T01:56:21.338Z,8.80
2022-11-14T01:57:47.375Z,8.30
2022-11-14T01:59:14.224Z,8.60
2022-11-14T02:00:36.441Z,8.90
2022-11-14T02:02:02.602Z,8.70
2022-11-14T02:03:24.736Z,8.70
2022-11-14T02:04:57.591Z,12.10
2022-11-14T02:06:22.235Z,8.30
2022-11-14T02:07:44.484Z,8.70
2022-11-14T02:09:08.086Z,7.80
2022-11-14T02:10:30.029Z,9.50
2022-11-14T02:11:55.281Z,7.70
2022-11-14T02:13:17.038Z,8.60
2022-11-14T02:14:40.034Z,8.70
2022-11-14T02:16:02.376Z,8.60
2022-11-14T02:17:30.449Z,8.80
2022-11-14T02:18:52.729Z,9.40
2022-11-14T02:20:19.489Z,7.80
2022-11-14T02:21:43.730Z,8.50
2022-11-14T02:23:05.705Z,9.60
2022-11-14T02:24:27.340Z,8.70
2022-11-14T02:27:11.269Z,8.00
2022-11-14T02:28:33.399Z,9.70
2022-11-14T02:29:55.495Z,8.10
2022-11-14T02:31:17.417Z,9.00
2022-11-14T02:33:04.339Z,8.60
2022-11-14T02:34:22.929Z,8.70
2022-11-14T02:35:44.751Z,8.00
2022-11-14T02:37:07.429Z,8.10
2022-11-14T02:38:29.782Z,7.70
2022-11-14T02:39:52.219Z,7.80
2022-11-14T02:41:14.393Z,7.80
2022-11-14T02:42:36.410Z,8.50
2022-11-14T02:44:00.268Z,8.50
2022-11-14T02:45:22.447Z,7.70
2022-11-14T02:46:44.579Z,7.60
2022-11-14T02:48:06.854Z,7.90
2022-11-14T02:49:28.841Z,7.20
2022-11-14T02:50:51.026Z,8.30
2022-11-14T02:52:13.356Z,8.00
2022-11-14T02:53:35.054Z,8.20
2022-11-14T02:54:56.636Z,7.40
2022-11-14T02:56:18.803Z,7.50
2022-11-14T02:57:40.652Z,8.70
2022-11-14T02:59:02.495Z,10.10
2022-11-14T03:00:24.608Z,9.50
2022-11-14T03:01:46.246Z,8.10
2022-11-14T03:03:08.443Z,7.70
2022-11-14T03:04:30.563Z,8.00
2022-11-14T03:05:53.690Z,7.80
2022-11-14T03:07:16.127Z,8.20
2022-11-14T03:08:37.989Z,7.70
2022-11-14T03:10:00.047Z,10.10
2022-11-14T03:11:21.922Z,8.60
2022-11-14T03:12:43.829Z,7.70
2022-11-14T03:14:05.684Z,8.60
2022-11-14T03:15:27.399Z,7.70
2022-11-14T03:16:49.165Z,8.10
2022-11-14T03:18:11.309Z,8.90
2022-11-14T03:19:33.014Z,8.30
2022-11-14T03:20:54.767Z,7.80
2022-11-14T03:22:17.024Z,7.00
2022-11-14T03:23:39.069Z,7.60
2022-11-14T03:25:01.232Z,8.60
2022-11-14T03:26:23.479Z,7.50
2022-11-14T03:27:45.579Z,7.90
2022-11-14T03:29:07.998Z,8.10
2022-11-14T03:30:30.282Z,8.20
2022-11-14T03:31:54.645Z,7.80
2022-11-14T03:33:16.570Z,7.40
2022-11-14T03:34:38.541Z,7.40
2022-11-14T03:36:01.117Z,8.20
2022-11-14T03:37:23.042Z,8.10
2022-11-14T03:38:45.247Z,7.50
2022-11-14T03:40:08.537Z,8.70
2022-11-14T03:41:31.036Z,7.20
2022-11-14T03:42:52.748Z,8.20
2022-11-14T03:44:14.939Z,8.20
2022-11-14T03:45:38.722Z,7.40
2022-11-14T03:47:00.571Z,7.00
2022-11-14T03:48:22.934Z,7.40
2022-11-14T03:49:47.676Z,6.70
2022-11-14T03:51:09.904Z,7.40
2022-11-14T03:52:31.671Z,7.90
2022-11-14T03:53:53.885Z,8.70
2022-11-14T03:55:16.374Z,7.30
2022-11-14T03:56:38.395Z,8.70
2022-11-14T03:58:00.977Z,8.00
2022-11-14T03:59:22.827Z,7.20
2022-11-14T04:02:06.413Z,7.10
2022-11-14T04:03:28.692Z,7.10
2022-11-14T04:04:50.335Z,7.50
2022-11-14T04:06:12.841Z,7.10
2022-11-14T04:07:35.227Z,7.70
2022-11-14T04:08:57.793Z,7.00
2022-11-14T04:10:20.479Z,8.50
2022-11-14T04:11:42.234Z,6.90
2022-11-14T04:13:05.366Z,8.80
2022-11-14T04:14:27.606Z,9.10
2022-11-14T04:15:55.270Z,9.90
2022-11-14T04:17:17.570Z,7.90
2022-11-14T04:18:39.889Z,7.70
2022-11-14T04:20:02.180Z,9.10
2022-11-14T04:21:24.172Z,7.40
2022-11-14T04:22:46.927Z,7.90
2022-11-14T04:24:11.158Z,7.70
2022-11-14T04:25:33.984Z,7.00
2022-11-14T04:26:55.808Z,8.80
2022-11-14T04:28:18.246Z,8.20
2022-11-14T04:29:39.816Z,6.40
2022-11-14T04:31:01.396Z,7.00
2022-11-14T04:32:23.496Z,8.20
2022-11-14T04:33:45.242Z,6.60
2022-11-14T04:35:07.455Z,7.50
2022-11-14T04:36:29.337Z,7.60
2022-11-14T04:37:51.122Z,7.30
2022-11-14T04:39:13.088Z,7.60
2022-11-14T04:40:35.352Z,7.10
2022-11-14T04:41:57.330Z,7.80
2022-11-14T04:43:20.784Z,6.80
2022-11-14T04:44:43.013Z,6.50
2022-11-14T04:46:05.267Z,7.60
2022-11-14T04:47:27.088Z,6.60
2022-11-14T04:48:51.853Z,8.40
2022-11-14T04:50:14.296Z,7.40
2022-11-14T04:51:36.362Z,6.90
2022-11-14T04:52:58.357Z,7.10
2022-11-14T04:54:20.868Z,7.30
2022-11-14T04:55:45.141Z,6.80
2022-11-14T04:57:06.915Z,7.70
2022-11-14T04:58:29.465Z,7.90
2022-11-14T04:59:51.562Z,7.20
2022-11-14T05:01:15.509Z,7.70
2022-11-14T05:02:37.684Z,7.30
2022-11-14T05:04:00.010Z,7.10
2022-11-14T05:05:22.074Z,7.00
2022-11-14T05:06:44.057Z,6.10
2022-11-14T05:08:06.493Z,7.30
2022-11-14T05:09:28.725Z,6.60
2022-11-14T05:10:51.365Z,6.90
2022-11-14T05:12:13.328Z,6.90
2022-11-14T05:13:35.576Z,7.20
2022-11-14T05:14:57.696Z,6.90
2022-11-14T05:16:19.537Z,6.30
2022-11-14T05:17:41.785Z,7.00
2022-11-14T05:19:04.460Z,6.90
2022-11-14T05:20:26.349Z,7.00
2022-11-14T05:21:48.405Z,7.90
2022-11-14T05:23:25.926Z,6.60
2022-11-14T05:24:47.891Z,6.70
2022-11-14T05:26:12.922Z,7.90
2022-11-14T05:27:35.119Z,7.00
2022-11-14T05:28:57.118Z,7.20
2022-11-14T05:30:19.742Z,7.60
2022-11-14T05:31:41.921Z,6.70
2022-11-14T05:33:03.802Z,7.50
2022-11-14T05:34:25.565Z,6.60
2022-11-14T05:35:47.492Z,6.10
2022-11-14T05:37:09.315Z,6.80
2022-11-14T05:38:31.902Z,7.00
2022-11-14T05:39:54.400Z,6.40
2022-11-14T05:41:20.259Z,6.60
2022-11-14T05:42:42.123Z,7.10
2022-11-14T05:44:07.736Z,6.20
2022-11-14T05:45:30.991Z,6.70
2022-11-14T05:46:52.762Z,6.50
2022-11-14T05:48:14.755Z,6.60
2022-11-14T05:49:37.080Z,7.10
2022-11-14T05:51:02.299Z,6.00
2022-11-14T05:52:24.372Z,6.80
2022-11-14T05:53:46.671Z,7.30
2022-11-14T05:55:09.631Z,5.70
2022-11-14T05:56:31.701Z,7.00
2022-11-14T05:57:53.826Z,6.00
2022-11-14T05:59:16.006Z,6.70
2022-11-14T06:00:44.297Z,6.20
2022-11-14T06:02:12.721Z,5.90
2022-11-14T06:03:37.653Z,6.90
2022-11-14T06:04:59.792Z,8.20
2022-11-14T06:06:22.482Z,6.80
2022-11-14T06:07:44.169Z,7.40
2022-11-14T06:09:06.241Z,6.40
2022-11-14T06:10:28.440Z,7.70
2022-11-14T06:11:50.358Z,7.20
2022-11-14T06:13:12.755Z,6.50
2022-11-14T06:14:35.000Z,7.60
2022-11-14T06:16:05.163Z,6.20
2022-11-14T06:17:27.540Z,6.60
2022-11-14T06:18:52.684Z,5.60
2022-11-14T06:20:15.933Z,6.40
2022-11-14T06:21:38.163Z,6.30
2022-11-14T06:23:00.483Z,6.70
2022-11-14T06:24:31.670Z,6.70
2022-11-14T06:26:06.083Z,7.40
2022-11-14T06:27:27.898Z,7.10
2022-11-14T06:28:51.057Z,6.00
2022-11-14T06:30:37.997Z,6.20
2022-11-14T06:32:00.846Z,5.80
2022-11-14T06:33:22.870Z,7.20
2022-11-14T06:34:44.852Z,6.00
2022-11-14T06:36:08.545Z,5.60
2022-11-14T06:37:33.664Z,6.60
2022-11-14T06:38:55.970Z,6.30
2022-11-14T06:40:18.201Z,6.00
2022-11-14T06:41:40.561Z,6.20
2022-11-14T06:43:02.668Z,7.30
2022-11-14T06:44:29.664Z,6.50
2022-11-14T06:45:56.147Z,6.30
2022-11-14T06:47:18.266Z,6.70
2022-11-14T06:48:41.555Z,6.20
2022-11-14T06:50:03.592Z,6.00
2022-11-14T06:51:26.387Z,5.90
2022-11-14T06:52:48.490Z,6.40
2022-11-14T06:54:14.062Z,6.40
2022-11-14T06:55:35.909Z,6.00
2022-11-14T06:56:57.861Z,5.80
2022-11-14T06:58:20.453Z,6.60
2022-11-14T06:59:42.385Z,6.50
2022-11-14T07:01:05.922Z,6.30
2022-11-14T07:02:27.840Z,7.10
2022-11-14T07:03:50.842Z,6.60
2022-11-14T07:05:13.217Z,6.40
2022-11-14T07:06:35.150Z,6.30
2022-11-14T07:07:59.434Z,6.30
2022-11-14T07:09:21.392Z,5.80
2022-11-14T07:10:43.465Z,7.00
2022-11-14T07:12:05.760Z,6.40
2022-11-14T07:13:32.857Z,6.40
2022-11-14T07:14:55.144Z,5.50
2022-11-14T07:16:17.837Z,5.40
2022-11-14T07:17:40.117Z,5.70
2022-11-14T07:19:05.135Z,5.90
2022-11-14T07:20:27.214Z,5.50
2022-11-14T07:21:49.262Z,5.60
2022-11-14T07:23:11.676Z,5.80
2022-11-14T07:24:33.596Z,8.30
2022-11-14T07:25:56.325Z,5.30
2022-11-14T07:27:18.648Z,5.20
2022-11-14T07:28:43.936Z,4.70
2022-11-14T07:30:07.548Z,4.80
2022-11-14T07:31:29.359Z,4.70
2022-11-14T07:33:00.554Z,5.10
2022-11-14T07:34:22.811Z,5.60
2022-11-14T07:35:44.730Z,7.90
2022-11-14T07:37:07.001Z,4.60
2022-11-14T07:38:32.112Z,4.70
2022-11-14T07:39:54.376Z,4.20
2022-11-14T07:41:17.451Z,4.40
2022-11-14T07:42:42.676Z,5.40
2022-11-14T07:44:04.726Z,4.70
2022-11-14T07:45:28.280Z,5.30
2022-11-14T07:46:51.245Z,4.90
2022-11-14T07:48:13.709Z,4.10
2022-11-14T07:49:37.825Z,4.60
2022-11-14T07:51:00.864Z,4.90
2022-11-14T07:52:23.704Z,4.30
2022-11-14T07:53:49.207Z,4.20
2022-11-14T07:55:11.158Z,4.70
2022-11-14T07:56:33.681Z,4.70
2022-11-14T07:57:59.264Z,3.90
2022-11-14T07:59:21.857Z,5.00
2022-11-14T08:00:45.200Z,3.90
2022-11-14T08:02:16.158Z,3.60
2022-11-14T08:03:42.470Z,6.10
2022-11-14T08:05:07.717Z,4.10
2022-11-14T08:06:29.549Z,4.80
2022-11-14T08:07:52.555Z,4.30
2022-11-14T08:09:14.559Z,4.10
2022-11-14T08:10:37.037Z,7.00
2022-11-14T08:12:00.941Z,5.40
2022-11-14T08:13:32.347Z,4.40
2022-11-14T08:14:58.221Z,3.80
2022-11-14T08:16:20.672Z,3.90
2022-11-14T08:17:42.794Z,4.40
2022-11-14T08:19:05.261Z,3.80
2022-11-14T08:20:28.586Z,4.50
2022-11-14T08:21:50.398Z,4.00
2022-11-14T08:23:13.536Z,4.10
2022-11-14T08:24:35.640Z,4.20
2022-11-14T08:25:59.845Z,5.90
2022-11-14T08:27:21.990Z,5.30
2022-11-14T08:28:44.124Z,4.30
2022-11-14T08:30:06.807Z,3.80
2022-11-14T08:31:30.898Z,6.10
2022-11-14T08:32:53.141Z,5.00
2022-11-14T08:34:15.318Z,4.10
2022-11-14T08:35:37.319Z,3.80
2022-11-14T08:36:59.930Z,3.50
2022-11-14T08:38:22.071Z,3.70
2022-11-14T08:39:44.222Z,3.70
2022-11-14T08:41:08.854Z,4.60
2022-11-14T08:42:31.180Z,3.60
2022-11-14T08:43:55.745Z,4.50
2022-11-14T08:45:18.529Z,3.50
2022-11-14T08:46:40.414Z,3.60
2022-11-14T08:48:02.534Z,4.30
2022-11-14T08:49:24.793Z,3.50
2022-11-14T08:50:47.004Z,3.90
2022-11-14T08:52:15.330Z,3.50
2022-11-14T08:53:38.578Z,3.60
2022-11-14T08:55:00.378Z,3.40
2022-11-14T08:56:22.998Z,4.00
2022-11-14T08:57:49.136Z,4.00
2022-11-14T08:59:12.082Z,3.10
2022-11-14T09:00:34.436Z,3.70
2022-11-14T09:01:56.577Z,3.20
2022-11-14T09:03:18.581Z,3.90
2022-11-14T09:04:40.965Z,4.30
2022-11-14T09:06:03.859Z,3.50
2022-11-14T09:07:26.022Z,3.80
2022-11-14T09:08:48.034Z,3.30
2022-11-14T09:10:10.636Z,5.40
2022-11-14T09:11:32.812Z,3.90
2022-11-14T09:12:59.099Z,3.50
2022-11-14T09:14:21.187Z,3.20
2022-11-14T09:15:43.571Z,4.00
2022-11-14T09:17:06.292Z,3.30
2022-11-14T09:18:30.805Z,4.50
2022-11-14T09:19:52.838Z,4.80
2022-11-14T09:21:17.131Z,3.30
2022-11-14T09:22:42.717Z,3.70
2022-11-14T09:24:04.691Z,3.00
2022-11-14T09:25:27.268Z,4.70
2022-11-14T09:26:56.705Z,3.10
2022-11-14T09:28:28.272Z,5.20
2022-11-14T09:31:13.725Z,3.50
2022-11-14T09:32:36.189Z,3.30
2022-11-14T09:33:58.195Z,4.20
2022-11-14T09:35:20.072Z,3.90
2022-11-14T09:36:44.820Z,4.20
2022-11-14T09:38:08.999Z,4.40
2022-11-14T09:39:38.139Z,4.80
2022-11-14T09:41:04.422Z,3.00
2022-11-14T09:42:46.170Z,3.30
2022-11-14T09:44:33.528Z,3.80
2022-11-14T09:45:56.360Z,3.50
2022-11-14T09:47:24.874Z,3.20
2022-11-14T09:48:47.012Z,3.70
2022-11-14T09:50:25.903Z,4.00
2022-11-14T09:51:54.921Z,4.00
2022-11-14T09:53:42.387Z,4.30
2022-11-14T09:55:13.816Z,3.50
2022-11-14T09:56:35.945Z,3.50
2022-11-14T09:57:58.591Z,3.40
2022-11-14T09:59:21.044Z,4.40
2022-11-14T10:00:57.860Z,3.50
2022-11-14T10:02:45.067Z,3.10
2022-11-14T10:04:09.826Z,3.60
2022-11-14T10:06:12.499Z,3.30
2022-11-14T10:07:59.613Z,3.50
2022-11-14T10:09:39.501Z,4.20
2022-11-14T10:11:16.834Z,3.40
2022-11-14T10:13:07.815Z,3.70
2022-11-14T10:15:00.176Z,3.00
2022-11-14T10:16:52.542Z,3.20
2022-11-14T10:18:57.540Z,3.90
2022-11-14T10:20:50.767Z,3.40
2022-11-14T10:22:44.521Z,3.70
2022-11-14T10:24:40.743Z,2.90
2022-11-14T10:26:13.304Z,3.40
2022-11-14T10:27:57.481Z,3.50
2022-11-14T10:29:22.057Z,3.90
2022-11-14T10:30:52.193Z,3.60
2022-11-14T10:32:42.695Z,3.10
2022-11-14T10:34:48.735Z,3.20
2022-11-14T10:36:20.145Z,3.30
2022-11-14T10:37:55.700Z,3.50
2022-11-14T10:39:31.742Z,3.20
2022-11-14T10:40:58.493Z,3.40
2022-11-14T10:42:31.485Z,3.50
2022-11-14T10:43:55.647Z,2.80
2022-11-14T10:45:37.484Z,3.20
2022-11-14T10:47:05.241Z,3.60
2022-11-14T10:48:35.655Z,3.30
2022-11-14T10:50:33.820Z,3.10
2022-11-14T10:52:13.290Z,2.90
2022-11-14T10:53:40.600Z,3.30
2022-11-14T10:55:49.615Z,3.20
2022-11-14T10:57:21.117Z,3.80
2022-11-14T10:58:48.689Z,3.40
2022-11-14T11:00:17.630Z,3.10
2022-11-14T11:01:45.915Z,3.40
2022-11-14T11:03:09.709Z,4.10
2022-11-14T11:04:41.289Z,3.10
2022-11-14T11:07:44.979Z,3.40
2022-11-14T11:09:34.649Z,4.20
2022-11-14T11:11:18.519Z,3.30
2022-11-14T11:12:46.368Z,4.10
2022-11-14T11:14:19.902Z,4.70
2022-11-14T11:15:42.961Z,3.30
2022-11-14T11:17:09.214Z,3.00
2022-11-14T11:18:34.315Z,3.20
2022-11-14T11:20:25.610Z,4.50
2022-11-14T11:21:53.306Z,3.90
2022-11-14T11:23:22.879Z,3.50
2022-11-14T11:24:45.271Z,3.10
2022-11-14T11:26:17.691Z,3.30
2022-11-14T11:27:40.605Z,3.40
2022-11-14T11:29:05.699Z,3.20
2022-11-14T11:30:29.958Z,3.20
2022-11-14T11:32:00.521Z,2.80
2022-11-14T11:33:30.317Z,3.10
2022-11-14T11:34:52.871Z,3.30
2022-11-14T11:36:20.334Z,3.20
2022-11-14T11:37:54.914Z,5.50
2022-11-14T11:39:26.901Z,3.60
2022-11-14T11:40:53.389Z,2.90
2022-11-14T11:42:23.653Z,2.90
2022-11-14T11:43:56.994Z,3.50
2022-11-14T11:45:20.114Z,3.30
2022-11-14T11:47:02.776Z,3.40
2022-11-14T11:48:35.421Z,3.20
2022-11-14T11:49:57.462Z,3.90
2022-11-14T11:51:25.824Z,3.70
2022-11-14T11:52:57.575Z,3.00
2022-11-14T11:54:22.696Z,3.10
2022-11-14T11:55:49.693Z,3.30
2022-11-14T11:57:21.395Z,3.60
2022-11-14T11:58:50.554Z,3.20
2022-11-14T12:00:22.100Z,3.00
2022-11-14T12:01:44.340Z,3.00
2022-11-14T12:03:20.075Z,4.00
2022-11-14T12:04:42.522Z,3.70
2022-11-14T12:06:10.576Z,3.30
2022-11-14T12:07:39.878Z,5.20
2022-11-14T12:09:10.806Z,6.80
2022-11-14T12:10:36.773Z,6.70
2022-11-14T12:12:07.013Z,6.10
2022-11-14T12:14:01.702Z,8.10
2022-11-14T12:15:47.180Z,9.70
2022-11-14T12:17:47.237Z,5.60
2022-11-14T12:19:12.372Z,4.60
2022-11-14T12:21:04.956Z,4.70
2022-11-14T12:22:39.156Z,4.50
2022-11-14T12:24:46.508Z,3.90
2022-11-14T12:26:11.206Z,3.40
2022-11-14T12:27:36.109Z,3.50
2022-11-14T12:29:13.191Z,3.30
2022-11-14T12:30:36.843Z,3.50
2022-11-14T12:32:06.707Z,3.40
2022-11-14T12:33:37.439Z,3.80
2022-11-14T12:35:03.616Z,3.40
2022-11-14T12:36:32.565Z,3.90
2022-11-14T12:37:56.553Z,4.70
2022-11-14T12:39:37.714Z,3.80
2022-11-14T12:41:01.532Z,3.90
2022-11-14T12:42:23.711Z,10.10
2022-11-14T12:43:47.705Z,19.70
2022-11-14T12:45:41.761Z,21.70
2022-11-14T12:47:03.580Z,4.50
2022-11-14T12:48:30.361Z,5.10
2022-11-14T12:49:52.956Z,3.90
2022-11-14T12:51:29.354Z,3.80
2022-11-14T12:52:54.381Z,3.30
2022-11-14T12:54:42.762Z,3.60
2022-11-14T12:56:29.186Z,3.90
2022-11-14T12:58:12.641Z,3.00
2022-11-14T12:59:46.087Z,3.50
2022-11-14T13:01:16.999Z,3.40
2022-11-14T13:03:16.415Z,3.60
2022-11-14T13:05:09.296Z,4.20
2022-11-14T13:06:37.411Z,3.50
2022-11-14T13:08:36.226Z,3.40
2022-11-14T13:10:10.576Z,3.20
2022-11-14T13:12:05.886Z,3.30
2022-11-14T13:13:47.019Z,3.50
2022-11-14T13:16:06.918Z,3.30
2022-11-14T13:17:47.686Z,3.80
2022-11-14T13:19:39.073Z,3.30
2022-11-14T13:21:26.111Z,3.80
2022-11-14T13:22:48.225Z,4.70
2022-11-14T13:24:12.587Z,3.20
2022-11-14T13:25:35.001Z,4.10
2022-11-14T13:27:45.112Z,3.50
2022-11-14T13:29:28.821Z,3.60
2022-11-14T13:31:07.909Z,3.70
2022-11-14T13:32:41.888Z,3.90
2022-11-14T13:34:32.749Z,3.70
2022-11-14T13:36:02.152Z,3.80
2022-11-14T13:37:45.432Z,3.70
2022-11-14T13:39:13.033Z,4.10
2022-11-14T13:40:57.533Z,3.80
2022-11-14T13:42:29.897Z,4.10
2022-11-14T13:44:30.681Z,4.70
2022-11-14T13:46:13.753Z,4.40
2022-11-14T13:47:48.284Z,4.70
2022-11-14T13:49:29.016Z,4.40
2022-11-14T13:50:56.222Z,4.40
2022-11-14T13:52:19.426Z,3.40
2022-11-14T13:53:42.514Z,4.60
2022-11-14T13:55:05.064Z,4.80
2022-11-14T13:57:01.783Z,4.30
2022-11-14T13:58:59.501Z,4.40
2022-11-14T14:00:22.017Z,3.40
2022-11-14T14:02:05.512Z,4.70
2022-11-14T14:03:50.394Z,3.50
2022-11-14T14:05:36.775Z,4.10
2022-11-14T14:07:37.317Z,3.50
2022-11-14T14:09:18.425Z,4.40
2022-11-14T14:12:23.715Z,3.90
2022-11-14T14:14:10.586Z,3.50
2022-11-14T14:15:42.132Z,3.70
2022-11-14T14:17:10.682Z,3.70
2022-11-14T14:18:57.903Z,5.60
2022-11-14T14:20:27.053Z,3.30
2022-11-14T14:22:10.104Z,3.50
2022-11-14T14:24:03.870Z,4.20
2022-11-14T14:25:45.647Z,3.90
2022-11-14T14:27:53.860Z,4.40
2022-11-14T14:29:25.265Z,3.60
2022-11-14T14:32:26.469Z,4.00
2022-11-14T14:33:51.375Z,2.90
2022-11-14T14:35:30.036Z,4.70
2022-11-14T14:36:57.681Z,3.90
2022-11-14T14:38:25.709Z,4.30
2022-11-14T14:40:06.425Z,3.50
2022-11-14T14:41:31.839Z,7.50
2022-11-14T14:42:55.204Z,5.40
2022-11-14T14:44:32.106Z,4.30
2022-11-14T14:45:54.722Z,4.30
2022-11-14T14:47:34.760Z,4.00
2022-11-14T14:48:58.179Z,5.70
2022-11-14T14:50:23.877Z,10.40
2022-11-14T14:51:45.960Z,5.40
2022-11-14T14:53:21.045Z,6.80
2022-11-14T14:54:42.867Z,3.20
2022-11-14T14:56:19.664Z,4.10
2022-11-14T14:57:42.132Z,4.30
2022-11-14T14:59:18.292Z,4.50
2022-11-14T15:00:40.305Z,3.50
2022-11-14T15:02:04.076Z,4.50
2022-11-14T15:03:51.929Z,3.90
2022-11-14T15:05:26.643Z,5.00
2022-11-14T15:06:49.979Z,4.90
2022-11-14T15:08:15.878Z,4.30
2022-11-14T15:09:37.975Z,3.70
2022-11-14T15:11:00.860Z,4.00
2022-11-14T15:12:29.941Z,6.70
2022-11-14T15:13:56.164Z,12.80
2022-11-14T15:15:21.253Z,7.00
2022-11-14T15:16:45.272Z,7.70
2022-11-14T15:18:14.378Z,7.70
2022-11-14T15:19:45.840Z,6.90
2022-11-14T15:21:10.927Z,9.70
2022-11-14T15:22:33.874Z,8.60
2022-11-14T15:24:19.065Z,10.60
2022-11-14T15:25:42.762Z,6.00
2022-11-14T15:27:11.493Z,5.60
2022-11-14T15:28:34.268Z,4.90
2022-11-14T15:30:03.636Z,5.30
2022-11-14T15:31:25.534Z,6.40
2022-11-14T15:32:49.982Z,5.20
2022-11-14T15:34:34.214Z,4.40
2022-11-14T15:36:18.003Z,7.10
2022-11-14T15:37:40.102Z,7.20
2022-11-14T15:39:05.324Z,6.30
2022-11-14T15:40:27.741Z,6.50
2022-11-14T15:41:49.772Z,6.00
2022-11-14T15:43:43.409Z,5.20
2022-11-14T15:45:29.492Z,5.10
2022-11-14T15:46:53.618Z,5.30
2022-11-14T15:48:19.246Z,5.60
2022-11-14T15:49:53.776Z,5.60
2022-11-14T15:51:15.722Z,6.40
2022-11-14T15:52:41.353Z,9.20
2022-11-14T15:54:03.520Z,5.80
2022-11-14T15:55:25.776Z,6.70
2022-11-14T15:56:47.596Z,6.80
2022-11-14T15:58:28.599Z,10.40
2022-11-14T15:59:51.092Z,13.50
2022-11-14T16:01:27.398Z,8.30
2022-11-14T16:02:59.063Z,10.10
2022-11-14T16:04:24.565Z,8.40
2022-11-14T16:05:46.677Z,6.30
2022-11-14T16:07:15.846Z,6.50
2022-11-14T16:08:38.097Z,8.50
2022-11-14T16:09:59.966Z,8.00
2022-11-14T16:11:22.026Z,5.90
2022-11-14T16:12:47.993Z,5.70
2022-11-14T16:14:13.607Z,5.90
2022-11-14T16:15:36.061Z,6.00
2022-11-14T16:16:58.272Z,9.40
2022-11-14T16:18:20.249Z,6.90
2022-11-14T16:19:42.802Z,6.50
2022-11-14T16:21:04.596Z,10.40
2022-11-14T16:22:27.846Z,8.60
2022-11-14T16:23:50.587Z,6.90
2022-11-14T16:25:20.945Z,5.10
2022-11-14T16:26:42.781Z,6.30
2022-11-14T16:28:05.337Z,6.00
2022-11-14T16:29:28.373Z,7.10
2022-11-14T16:30:56.535Z,5.60
2022-11-14T16:32:18.708Z,6.60
2022-11-14T16:33:40.496Z,6.80
2022-11-14T16:35:02.175Z,8.70
2022-11-14T16:36:24.358Z,6.50
2022-11-14T16:37:46.502Z,6.80
2022-11-14T16:39:11.634Z,7.10
2022-11-14T16:40:33.592Z,7.50
2022-11-14T16:42:01.708Z,7.60
2022-11-14T16:43:24.026Z,7.50
2022-11-14T16:44:50.445Z,6.70
2022-11-14T16:46:14.388Z,6.70
2022-11-14T16:47:37.075Z,7.80
2022-11-14T16:48:59.872Z,6.80
2022-11-14T16:50:22.025Z,7.10
2022-11-14T16:51:49.689Z,6.90
2022-11-14T16:53:12.147Z,6.10
2022-11-14T16:54:34.124Z,6.70
2022-11-14T16:55:56.807Z,6.70
2022-11-14T16:57:18.972Z,6.20
2022-11-14T16:58:42.193Z,6.30
2022-11-14T17:00:06.547Z,5.70
2022-11-14T17:01:28.240Z,5.90
2022-11-14T17:02:50.212Z,7.80
2022-11-14T17:04:12.892Z,7.10
2022-11-14T17:05:34.802Z,8.10
2022-11-14T17:06:56.989Z,6.60
2022-11-14T17:08:19.371Z,8.40
2022-11-14T17:09:41.346Z,9.30
2022-11-14T17:11:10.808Z,8.40
2022-11-14T17:12:33.947Z,8.60
2022-11-14T17:13:57.041Z,9.60
2022-11-14T17:15:19.306Z,10.40
2022-11-14T17:16:41.279Z,12.90
2022-11-14T17:18:04.637Z,9.20
2022-11-14T17:19:27.010Z,10.30
2022-11-14T17:20:48.945Z,8.00
2022-11-14T17:22:10.670Z,7.50
2022-11-14T17:23:32.864Z,8.00
2022-11-14T17:24:54.878Z,8.60
2022-11-14T17:26:17.259Z,11.40
2022-11-14T17:27:41.404Z,9.30
2022-11-14T17:29:04.255Z,8.00
2022-11-14T17:30:27.288Z,11.00
2022-11-14T17:31:49.068Z,10.50
2022-11-14T17:33:11.022Z,12.20
2022-11-14T17:34:33.441Z,13.20
2022-11-14T17:35:55.629Z,10.20
2022-11-14T17:37:17.594Z,11.50
2022-11-14T17:38:39.637Z,11.00
2022-11-14T17:40:04.498Z,9.20
2022-11-14T17:41:26.652Z,10.30
2022-11-14T17:42:48.695Z,10.60
2022-11-14T17:44:10.616Z,8.50
2022-11-14T17:45:32.720Z,9.40
2022-11-14T17:46:54.650Z,8.50
2022-11-14T17:48:16.876Z,8.50
2022-11-14T17:49:38.338Z,8.70
2022-11-14T17:51:11.895Z,7.50
2022-11-14T17:52:34.049Z,8.90
2022-11-14T17:53:55.925Z,7.60
2022-11-14T17:55:18.187Z,8.80
2022-11-14T17:56:46.561Z,7.20
2022-11-14T17:58:10.731Z,7.90
2022-11-14T17:59:33.831Z,7.80
2022-11-14T18:00:58.805Z,8.80
2022-11-14T18:02:20.604Z,7.90
2022-11-14T18:03:44.904Z,6.90
2022-11-14T18:05:07.591Z,7.10
2022-11-14T18:06:33.360Z,6.60
2022-11-14T18:07:55.439Z,7.40
2022-11-14T18:09:21.283Z,8.20
2022-11-14T18:10:43.448Z,9.80
2022-11-14T18:12:05.597Z,11.50
2022-11-14T18:13:28.667Z,11.40
2022-11-14T18:14:51.020Z,10.50
2022-11-14T18:16:16.218Z,14.20
2022-11-14T18:17:38.373Z,12.00
2022-11-14T18:19:02.687Z,11.90
2022-11-14T18:20:26.240Z,10.20
2022-11-14T18:21:53.965Z,12.50
2022-11-14T18:23:16.731Z,13.80
2022-11-14T18:24:41.610Z,11.00
2022-11-14T18:26:15.330Z,11.30
2022-11-14T18:27:37.700Z,9.60
2022-11-14T18:29:02.271Z,10.60
2022-11-14T18:30:40.952Z,10.20
2022-11-14T18:32:03.529Z,9.60
2022-11-14T18:33:27.572Z,11.80
2022-11-14T18:34:49.670Z,9.90
2022-11-14T18:36:13.213Z,9.80
2022-11-14T18:37:34.961Z,11.40
2022-11-14T18:38:58.246Z,12.20
2022-11-14T18:40:22.331Z,10.50
2022-11-14T18:41:44.075Z,10.10
2022-11-14T18:43:06.052Z,13.00
2022-11-14T18:44:28.943Z,12.90
2022-11-14T18:45:51.369Z,11.30
2022-11-14T18:47:13.749Z,13.90
2022-11-14T18:48:39.684Z,14.30
2022-11-14T18:50:01.579Z,14.50
2022-11-14T18:51:27.070Z,12.00
2022-11-14T18:52:48.706Z,18.10
2022-11-14T18:54:13.328Z,12.10
2022-11-14T18:55:41.835Z,15.80
2022-11-14T18:57:04.460Z,13.30
2022-11-14T18:58:26.673Z,17.40
2022-11-14T18:59:48.493Z,13.30
2022-11-14T19:01:24.075Z,14.50
2022-11-14T19:02:52.361Z,16.50
2022-11-14T19:04:17.514Z,16.20
2022-11-14T19:05:39.610Z,13.10
2022-11-14T19:07:01.715Z,14.50
2022-11-14T19:08:24.099Z,14.10
2022-11-14T19:09:46.218Z,17.80
2022-11-14T19:11:31.089Z,13.90
2022-11-14T19:12:53.323Z,13.30
2022-11-14T19:14:15.649Z,16.90
2022-11-14T19:15:38.303Z,15.20
2022-11-14T19:17:00.958Z,14.00
2022-11-14T19:18:23.315Z,13.70
2022-11-14T19:19:45.336Z,14.90
2022-11-14T19:21:07.115Z,16.50